Madison, Nebraska
Current Conditions -  °F | °C
As of 2:56 PM on Sunday 23 Nov 2014 (Local Time) from KOFK Reporting Station
Clear Clear  
Wind Chill: 36°   Ceiling: Unl
Heat Index: 45°   Visibility: 10mi
Dew Point: 31°   Wind: 23mph
Humidity: 58%   Direction: 340°NNW
Pressure: 29.53"   Gusts: 38mph
Location:  41.83°N, 97.46°W
Report Text: KOFK 232056Z AUTO 34020G33KT 10SM CLR 07/M01 A2953 RMK AO2 PK WND 33033/2029 SLP001 60000 T00721006 55010
Loading
Personal Weather Stations






























Interactive Weather Map New forecast layout! Learn more

10-Day Weather Forecast

Advertisements
Track Severe Weather on mobile